Time;durP1;ratioP1;P1;durP2;ratioP2;P2;SDS_P1;SDS_P2;PMS_P1;PMS_P2;Temp;Humidity;BMP_temperature;BMP_pressure;BME280_temperature;BME280_humidity;BME280_pressure;Samples;Min_cycle;Max_cycle;Signal;HPM_P1;HPM_P2
2021/11/20 08:26:13;;;;;;;46.83;31.70;;;;;;;9.84;100.00;102504.94;2613322;36;20041;-70
2021/11/20 08:29:32;;;;;;;47.80;32.15;;;;;;;9.76;100.00;102498.19;2614869;46;20714;-70
2021/11/20 08:36:04;;;;;;;50.80;32.83;;;;;;;9.77;100.00;102499.88;2630368;36;20059;-70
2021/11/20 08:58:04;;;;;;;;;;;;;;;;;;;;;
2021/11/20 09:04:45;;;;;;;;;;;;;;;;;;;;;
2021/11/20 09:17:51;;;;;;;46.55;30.48;;;;;;;9.97;100.00;102441.38;2649959;36;20084;-69
2021/11/20 09:21:02;;;;;;;;;;;;;;;;;;;;;
2021/11/20 09:30:19;;;;;;;44.65;30.35;;;;;;;9.91;100.00;102426.47;2309918;36;17904595;-73
2021/11/20 09:33:43;;;;;;;;;;;;;;;;;;;;;
2021/11/20 09:40:09;;;;;;;;;;;;;;;;;;;;;
2021/11/20 09:43:36;;;;;;;46.53;30.65;;;;;;;9.95;100.00;102422.63;2649461;36;20155;-72
2021/11/20 10:07:04;;;;;;;;;;;;;;;;;;;;;
2021/11/20 10:13:18;;;;;;;46.17;29.50;;;;;;;10.17;100.00;102410.53;2633939;36;20053;-71
2021/11/20 10:19:39;;;;;;;48.30;29.95;;;;;;;10.09;100.00;102402.94;2651362;36;20057;-72
2021/11/20 10:40:08;;;;;;;;;;;;;;;;;;;;;
2021/11/20 10:57:32;;;;;;;;;;;;;;;;;;;;;
2021/11/20 11:10:21;;;;;;;74.38;39.85;;;;;;;9.92;100.00;102354.72;2628450;36;20103;-71
2021/11/20 11:16:47;;;;;;;70.22;38.95;;;;;;;9.91;100.00;102339.53;2628140;36;20034;-73
2021/11/20 11:30:11;;;;;;;71.93;38.30;;;;;;;9.97;100.00;102318.50;2645700;36;20153;-71
2021/11/20 11:32:47;;;;;;;71.13;37.50;;;;;;;10.01;100.00;102308.41;2610336;36;20031;-72
2021/11/20 11:35:25;;;;;;;69.38;38.80;;;;;;;9.94;100.00;102301.69;2612098;36;20540;-71
2021/11/20 11:38:19;;;;;;;71.13;38.47;;;;;;;9.94;100.00;102301.69;2612148;36;20059;-71
2021/11/20 11:40:52;;;;;;;69.25;37.22;;;;;;;9.95;100.00;102303.41;2611677;36;20287;-71
2021/11/20 11:43:29;;;;;;;73.95;41.08;;;;;;;9.97;100.00;102296.13;2612081;31;20061;-70
2021/11/20 11:46:20;;;;;;;75.28;39.45;;;;;;;9.98;100.00;102287.06;2609961;36;20073;-72
2021/11/20 11:49:15;;;;;;;67.57;36.90;;;;;;;10.06;100.00;102276.72;2610484;31;20034;-71
2021/11/20 11:51:57;;;;;;;73.65;38.28;;;;;;;10.08;100.00;102266.69;2610751;36;20441;-72
2021/11/20 11:54:41;;;;;;;70.43;39.42;;;;;;;10.03;100.00;102263.44;2611497;36;20027;-70
2021/11/20 11:57:26;;;;;;;69.15;37.08;;;;;;;10.12;100.00;102262.84;2611277;36;20059;-70
2021/11/20 12:00:02;;;;;;;73.93;38.30;;;;;;;10.00;100.00;102269.03;2611718;36;20129;-71
2021/11/20 12:02:48;;;;;;;70.00;37.97;;;;;;;9.98;100.00;102268.25;2610350;36;20031;-72
2021/11/20 12:05:31;;;;;;;80.07;39.80;;;;;;;9.96;100.00;102268.34;2611881;36;20149;-73
2021/11/20 12:08:16;;;;;;;74.75;39.35;;;;;;;9.96;100.00;102251.34;2612587;36;20561;-71
2021/11/20 12:10:58;;;;;;;75.57;38.22;;;;;;;9.99;100.00;102251.16;2611990;36;20638;-72
2021/11/20 12:13:38;;;;;;;70.82;38.53;;;;;;;9.97;100.00;102242.34;2611313;36;20044;-73
2021/11/20 12:16:29;;;;;;;79.70;41.15;;;;;;;9.97;100.00;102239.66;2611870;36;20031;-71
2021/11/20 12:19:08;;;;;;;73.93;37.88;;;;;;;10.00;100.00;102232.22;2611303;31;20054;-72
2021/11/20 12:21:43;;;;;;;78.13;39.08;;;;;;;9.97;100.00;102232.44;2610424;36;20122;-70
2021/11/20 12:24:17;;;;;;;77.43;37.60;;;;;;;9.99;100.00;102229.63;2612028;36;20889;-71
2021/11/20 12:27:24;;;;;;;75.43;37.40;;;;;;;10.05;100.00;102231.94;2611152;36;20662;-72
2021/11/20 12:30:07;;;;;;;72.15;36.40;;;;;;;10.03;100.00;102223.09;2611594;31;20072;-72
2021/11/20 12:32:51;;;;;;;72.22;39.00;;;;;;;10.04;100.00;102226.66;2611862;36;20053;-71
2021/11/20 12:35:34;;;;;;;75.40;37.15;;;;;;;10.06;100.00;102216.66;2611616;36;20034;-71
2021/11/20 12:38:15;;;;;;;73.03;36.92;;;;;;;10.05;100.00;102206.88;2611148;36;20125;-71
2021/11/20 12:41:11;;;;;;;71.55;37.35;;;;;;;10.03;100.00;102206.97;2611823;36;20096;-71
2021/11/20 12:43:58;;;;;;;77.60;38.25;;;;;;;10.03;100.00;102206.13;2611402;36;20052;-72
2021/11/20 12:46:47;;;;;;;72.15;36.47;;;;;;;10.01;100.00;102192.72;2611017;36;20571;-73
2021/11/20 12:49:27;;;;;;;65.63;36.42;;;;;;;10.05;100.00;102182.66;2611040;31;20058;-72
2021/11/20 12:52:04;;;;;;;69.40;38.20;;;;;;;10.00;100.00;102174.88;2611060;36;20061;-73
2021/11/20 12:54:46;;;;;;;72.28;37.67;;;;;;;9.97;100.00;102173.25;2613869;36;20171;-70
2021/11/20 12:57:23;;;;;;;73.57;38.85;;;;;;;9.98;100.00;102168.72;2612086;36;20141;-73
2021/11/20 12:59:54;;;;;;;70.97;39.05;;;;;;;9.96;100.00;102168.84;2611822;36;20081;-72
2021/11/20 13:02:38;;;;;;;67.10;36.15;;;;;;;9.99;100.00;102154.31;2610573;36;20042;-72
2021/11/20 13:05:17;;;;;;;70.32;37.28;;;;;;;9.99;100.00;102154.31;2611141;36;20134;-70
2021/11/20 13:07:56;;;;;;;75.15;39.05;;;;;;;9.99;100.00;102149.78;2611545;36;20168;-70
2021/11/20 13:10:33;;;;;;;72.82;36.40;;;;;;;9.95;100.00;102150.09;2611903;36;20111;-71
2021/11/20 13:13:10;;;;;;;77.70;38.58;;;;;;;9.97;100.00;102140.13;2611122;36;20039;-71
2021/11/20 13:15:59;;;;;;;70.90;36.63;;;;;;;10.00;100.00;102137.25;2611447;36;20190;-71
2021/11/20 13:18:28;;;;;;;;;;;;;;;9.97;100.00;102124.84;2611036;36;20061;-73
2021/11/20 13:21:01;;;;;;;69.30;36.25;;;;;;;9.95;100.00;102123.22;2611036;36;20038;-72
2021/11/20 13:23:34;;;;;;;72.32;38.05;;;;;;;9.92;100.00;102120.72;2611014;36;20038;-71
2021/11/20 13:26:15;;;;;;;73.88;38.47;;;;;;;9.92;100.00;102115.34;2610503;36;20065;-72
2021/11/20 13:28:47;;;;;;;70.78;37.00;;;;;;;9.94;100.00;102105.38;2611274;36;20757;-71
2021/11/20 13:31:19;;;;;;;74.90;36.60;;;;;;;9.95;100.00;102107.06;2611562;36;20074;-71
2021/11/20 13:33:48;;;;;;;70.35;34.33;;;;;;;9.97;100.00;102099.78;2611529;36;20058;-70
2021/11/20 13:36:16;;;;;;;68.82;34.38;;;;;;;9.97;100.00;102097.09;2611431;36;20404;-72
2021/11/20 13:38:45;;;;;;;64.68;33.95;;;;;;;9.96;100.00;102090.84;2611488;36;20070;-72
2021/11/20 13:41:13;;;;;;;69.95;34.42;;;;;;;9.97;100.00;102083.66;2610513;36;20042;-71
2021/11/20 13:43:49;;;;;;;69.15;35.90;;;;;;;9.95;100.00;102073.00;2611418;36;20168;-71
2021/11/20 13:46:19;;;;;;;63.00;32.35;;;;;;;9.92;100.00;102077.69;2611540;31;20428;-72
2021/11/20 13:48:47;;;;;;;66.53;33.58;;;;;;;9.93;100.00;102080.28;2611042;36;20636;-71
2021/11/20 13:51:21;;;;;;;66.32;33.80;;;;;;;9.93;100.00;102074.06;2610214;36;20065;-71
2021/11/20 13:53:52;;;;;;;68.32;34.88;;;;;;;9.88;100.00;102071.66;2609844;36;20030;-71
2021/11/20 13:56:20;;;;;;;71.28;34.25;;;;;;;9.86;100.00;102073.59;2610296;36;20436;-71
2021/11/20 13:58:58;;;;;;;67.65;33.05;;;;;;;9.84;100.00;102063.91;2610996;36;20050;-71
2021/11/20 14:01:28;;;;;;;64.85;33.42;;;;;;;9.89;100.00;102056.38;2611039;36;20804;-71
2021/11/20 14:03:59;;;;;;;63.25;32.05;;;;;;;9.88;100.00;102055.53;2611101;36;20038;-70
2021/11/20 14:06:28;;;;;;;68.78;31.73;;;;;;;9.85;100.00;102052.16;2610846;31;20030;-73
2021/11/20 14:08:57;;;;;;;65.45;33.53;;;;;;;9.87;100.00;102050.25;2610855;36;20069;-71
2021/11/20 14:11:26;;;;;;;;;;;;;;;9.87;100.00;102042.19;2609335;36;20448;-71
2021/11/20 14:13:59;;;;;;;69.78;33.08;;;;;;;9.79;100.00;102038.19;2601884;36;19961;-70
2021/11/20 14:16:36;;;;;;;67.57;33.08;;;;;;;9.81;100.00;102030.03;2602260;36;20030;-72
2021/11/20 14:19:07;;;;;;;68.82;33.83;;;;;;;9.81;100.00;102032.72;2602347;36;20137;-71
2021/11/20 14:21:37;;;;;;;68.80;33.00;;;;;;;9.88;100.00;102025.97;2603755;36;20034;-72
2021/11/20 14:24:08;;;;;;;66.03;30.35;;;;;;;9.91;100.00;102022.19;2611510;36;20445;-70
2021/11/20 14:26:47;;;;;;;65.28;32.85;;;;;;;9.82;100.00;102007.56;2610059;36;20155;-71
2021/11/20 14:29:29;;;;;;;67.32;33.08;;;;;;;9.82;100.00;102011.09;2608092;36;20079;-71
2021/11/20 14:32:00;;;;;;;69.45;33.05;;;;;;;9.83;100.00;102006.56;2610174;36;20125;-71
2021/11/20 14:34:36;;;;;;;70.40;34.28;;;;;;;9.78;100.00;102004.19;2610031;36;20069;-69
2021/11/20 14:37:15;;;;;;;64.63;31.23;;;;;;;9.78;100.00;101995.28;2610301;36;20031;-70
2021/11/20 15:08:41;;;;;;;70.68;32.97;;;;;;;9.65;100.00;101950.38;2609283;39;20484;-70
2021/11/20 16:06:05;;;;;;;70.28;34.28;;;;;;;9.52;100.00;101909.16;2632166;36;20057;-70
2021/11/20 16:12:13;;;;;;;64.50;32.85;;;;;;;9.51;100.00;101911.97;2613916;36;20037;-69
2021/11/20 16:21:10;;;;;;;70.22;34.25;;;;;;;9.51;100.00;101906.59;2632767;31;20018;-70
2021/11/20 16:23:46;;;;;;;72.93;34.92;;;;;;;9.49;100.00;101898.63;2614081;36;20151;-68
2021/11/20 16:35:42;;;;;;;68.25;32.05;;;;;;;9.49;100.00;101873.59;2611848;36;20668;-69
2021/11/20 16:40:40;;;;;;;70.30;34.38;;;;;;;9.49;100.00;101870.91;2615036;36;20042;-68
2021/11/20 16:49:35;;;;;;;71.95;35.00;;;;;;;9.43;100.00;101861.44;2614667;36;20026;-69
2021/11/20 16:52:09;;;;;;;79.00;35.42;;;;;;;9.41;100.00;101864.22;2613225;31;20038;-69
2021/11/20 16:54:39;;;;;;;81.40;39.38;;;;;;;9.40;100.00;101851.75;2615307;36;20034;-70
2021/11/20 16:57:17;;;;;;;83.97;46.65;;;;;;;9.44;100.00;101847.88;2615269;36;20160;-68
2021/11/20 16:59:49;;;;;;;76.75;38.70;;;;;;;9.49;100.00;101850.25;2615365;36;20030;-69
2021/11/20 17:02:31;;;;;;;82.15;40.00;;;;;;;9.39;100.00;101841.97;2614496;31;20034;-70
2021/11/20 17:05:01;;;;;;;74.00;37.20;;;;;;;9.45;100.00;101838.88;2614442;36;20133;-69
2021/11/20 17:07:47;;;;;;;80.60;38.33;;;;;;;9.45;100.00;101838.88;2613661;36;20057;-69
2021/11/20 17:12:58;;;;;;;85.55;41.05;;;;;;;9.33;100.00;101828.09;2610559;36;20030;-69
2021/11/20 17:15:27;;;;;;;87.15;40.38;;;;;;;9.38;100.00;101834.00;2612166;36;20122;-68
2021/11/20 17:17:57;;;;;;;87.28;40.25;;;;;;;9.39;100.00;101827.66;2611583;36;20155;-68
2021/11/20 17:20:25;;;;;;;93.88;41.13;;;;;;;9.35;100.00;101824.34;2611314;36;20031;-70
2021/11/20 17:23:01;;;;;;;95.72;46.17;;;;;;;9.39;100.00;101825.84;2612087;36;20133;-70
2021/11/20 17:25:35;;;;;;;91.68;44.10;;;;;;;9.25;100.00;101831.31;2612041;36;20037;-70
2021/11/20 17:28:08;;;;;;;96.10;41.08;;;;;;;9.22;100.00;101826.97;2611913;31;20598;-69
2021/11/20 17:30:42;;;;;;;88.15;35.67;;;;;;;9.22;100.00;101824.31;2611854;36;20037;-69
2021/11/20 17:33:25;;;;;;;91.13;42.22;;;;;;;9.23;100.00;101817.97;2611452;36;20030;-68
2021/11/20 17:35:53;;;;;;;79.32;35.97;;;;;;;9.28;100.00;101826.56;2611644;31;20042;-68
2021/11/20 17:38:22;;;;;;;98.45;42.65;;;;;;;9.25;100.00;101817.88;2610173;36;20034;-68
2021/11/20 17:40:51;;;;;;;93.63;42.72;;;;;;;9.25;100.00;101817.88;2611335;31;20563;-69
2021/11/20 17:43:25;;;;;;;89.57;41.00;;;;;;;9.23;100.00;101806.34;2611720;36;20046;-70
2021/11/20 17:45:55;;;;;;;93.10;45.60;;;;;;;9.22;100.00;101805.50;2612993;31;20519;-71
2021/11/20 17:48:25;;;;;;;88.82;41.50;;;;;;;9.27;100.00;101805.19;2611429;36;20092;-70
2021/11/20 17:50:54;;;;;;;93.43;50.05;;;;;;;9.30;100.00;101796.91;2612554;36;20648;-71
2021/11/20 17:53:23;;;;;;;87.35;42.30;;;;;;;9.22;100.00;101804.66;2612443;36;20038;-69
2021/11/20 17:55:51;;;;;;;86.88;37.25;;;;;;;9.25;100.00;101799.06;2611903;36;20174;-69
2021/11/20 17:58:26;;;;;;;83.75;36.08;;;;;;;9.22;100.00;101796.59;2610632;36;20155;-69
2021/11/20 18:00:58;;;;;;;90.90;38.35;;;;;;;9.19;100.00;101786.91;2612532;36;20038;-69
2021/11/20 18:03:35;;;;;;;91.07;37.72;;;;;;;9.22;100.00;101786.69;2609870;36;20122;-70
2021/11/20 18:06:10;;;;;;;95.10;40.95;;;;;;;9.13;100.00;101790.00;2612353;31;20578;-68
2021/11/20 18:08:41;;;;;;;97.57;41.88;;;;;;;9.12;100.00;101778.38;2611601;36;20038;-68
2021/11/20 18:11:11;;;;;;;91.68;40.20;;;;;;;9.12;100.00;101777.53;2611876;36;20037;-68
2021/11/20 18:19:33;;;;;;;94.43;40.00;;;;;;;8.99;100.00;101756.03;2610360;36;20447;-71
2021/11/20 18:22:11;;;;;;;;;;;;;;;;;;;;;
2021/11/20 18:24:40;;;;;;;96.40;40.78;;;;;;;9.04;100.00;101751.22;2612101;31;20625;-68
2021/11/20 18:27:08;;;;;;;105.30;48.45;;;;;;;9.02;100.00;101744.22;2612317;36;20560;-72
2021/11/20 18:29:43;;;;;;;92.30;39.95;;;;;;;9.09;100.00;101743.69;2611546;36;20038;-68
2021/11/20 18:32:15;;;;;;;104.07;48.63;;;;;;;9.08;100.00;101733.94;2610917;36;20130;-70
2021/11/20 18:34:43;;;;;;;100.88;45.13;;;;;;;9.05;100.00;101736.78;2611695;36;20624;-71
2021/11/20 18:37:22;;;;;;;99.53;45.38;;;;;;;9.10;100.00;101736.50;2610298;54;20038;-70
2021/11/20 18:52:45;;;;;;;95.88;40.65;;;;;;;8.95;100.00;101719.59;2608853;36;20726;-68
2021/11/20 18:55:13;;;;;;;85.03;37.65;;;;;;;8.94;100.00;101717.91;2609242;31;20037;-70
2021/11/20 18:57:42;;;;;;;86.45;38.00;;;;;;;8.90;100.00;101711.00;2612308;31;20505;-68
2021/11/20 19:00:12;;;;;;;99.72;40.95;;;;;;;8.91;100.00;101704.69;2611846;36;20046;-67
2021/11/20 19:05:22;;;;;;;86.65;36.70;;;;;;;8.90;100.00;101697.59;2611536;36;20042;-68
2021/11/20 19:07:53;;;;;;;92.55;38.70;;;;;;;8.91;100.00;101696.63;2611323;31;20678;-69
2021/11/20 19:10:21;;;;;;;94.65;39.78;;;;;;;8.87;100.00;101693.28;2610240;36;20130;-68
2021/11/20 19:12:50;;;;;;;96.97;40.17;;;;;;;8.90;100.00;101686.84;2610640;36;20588;-67
2021/11/20 19:15:20;;;;;;;103.30;40.15;;;;;;;8.91;100.00;101688.56;2611449;36;20121;-68
2021/11/20 19:17:48;;;;;;;90.32;37.88;;;;;;;8.96;100.00;101689.09;2611143;36;20129;-70
2021/11/20 19:20:18;;;;;;;109.70;47.80;;;;;;;8.91;100.00;101689.41;2628125;36;20130;-67
2021/11/20 19:22:47;;;;;;;103.90;44.35;;;;;;;8.88;100.00;101684.25;2610440;36;20030;-67
2021/11/20 19:25:19;;;;;;;105.35;47.05;;;;;;;8.94;100.00;101691.03;2610825;36;20521;-68
2021/11/20 19:27:49;;;;;;;107.75;48.60;;;;;;;8.93;100.00;101681.25;2610064;36;20092;-69
2021/11/20 19:30:25;;;;;;;109.70;48.00;;;;;;;8.88;100.00;101688.78;2608934;31;20055;-67
2021/11/20 19:32:54;;;;;;;101.38;40.70;;;;;;;8.90;100.00;101689.53;2609964;39;20538;-69
2021/11/20 19:35:22;;;;;;;95.65;40.67;;;;;;;8.92;100.00;101679.53;2611713;36;20031;-70
2021/11/20 19:46:55;;;;;;;122.60;54.38;;;;;;;8.92;100.00;101668.78;2607386;36;20038;-68
2021/11/20 19:55:56;;;;;;;104.35;39.83;;;;;;;8.87;100.00;101663.75;2609014;31;20129;-68
2021/11/20 19:58:34;;;;;;;110.22;41.60;;;;;;;8.84;100.00;101657.75;2608024;36;20722;-68
2021/11/20 20:01:05;;;;;;;107.45;41.80;;;;;;;8.90;100.00;101655.47;2609144;54;20176;-68
2021/11/20 20:03:34;;;;;;;114.40;43.17;;;;;;;8.91;100.00;101649.16;2609091;36;20038;-68
2021/11/20 20:06:02;;;;;;;106.28;41.78;;;;;;;8.88;100.00;101640.47;2608262;36;20038;-67
2021/11/20 20:08:34;;;;;;;112.65;43.17;;;;;;;8.86;100.00;101647.75;2607528;36;20174;-70
2021/11/20 20:11:02;;;;;;;116.57;45.42;;;;;;;8.87;100.00;101646.78;2610581;54;20037;-69
2021/11/20 20:14:01;;;;;;;116.45;47.55;;;;;;;8.80;100.00;101649.03;2607435;36;20214;-70
2021/11/20 20:16:34;;;;;;;116.30;45.60;;;;;;;8.83;100.00;101645.28;2608942;36;20114;-70
2021/11/20 20:19:03;;;;;;;112.15;43.83;;;;;;;8.76;100.00;101644.84;2628499;36;20125;-68
2021/11/20 20:21:39;;;;;;;121.85;48.20;;;;;;;8.84;100.00;101637.13;2610318;36;20053;-68
2021/11/20 20:24:11;;;;;;;118.05;46.35;;;;;;;8.80;100.00;101634.75;2609834;36;20035;-68
2021/11/20 20:26:52;;;;;;;;;;;;;;;;;;;;;
2021/11/20 20:38:50;;;;;;;100.28;41.40;;;;;;;8.88;100.00;101633.25;2626449;36;20030;-69
2021/11/20 20:43:59;;;;;;;100.35;42.60;;;;;;;8.90;100.00;101622.41;2608542;36;20593;-69
2021/11/20 20:52:02;;;;;;;94.15;39.55;;;;;;;9.05;100.00;101612.44;2611255;36;20054;-68
2021/11/20 20:57:10;;;;;;;103.35;41.10;;;;;;;9.04;100.00;101618.75;2610053;36;19958;-71
2021/11/20 20:59:48;;;;;;;122.03;50.80;;;;;;;9.04;100.00;101608.88;2611167;36;20149;-69
2021/11/20 21:02:17;;;;;;;109.55;47.78;;;;;;;9.06;100.00;101609.63;2611105;36;20153;-69
2021/11/20 21:05:21;;;;;;;102.88;43.00;;;;;;;9.01;100.00;101603.75;2610127;36;20566;-71
2021/11/20 21:08:00;;;;;;;91.75;42.30;;;;;;;8.97;100.00;101596.84;2609953;36;20173;-70
2021/11/20 21:13:18;;;;;;;61.13;28.95;;;;;;;8.92;100.00;101582.88;2611785;36;20708;-69
2021/11/20 21:15:46;;;;;;;46.80;23.23;;;;;;;8.89;100.00;101578.63;2611866;36;20077;-70
2021/11/20 21:18:18;;;;;;;40.92;20.13;;;;;;;8.90;100.00;101574.09;2610232;36;20046;-68
2021/11/20 21:23:29;;;;;;;34.90;17.90;;;;;;;8.88;100.00;101559.94;2610951;36;20035;-68
2021/11/20 21:25:58;;;;;;;39.08;17.90;;;;;;;8.90;100.00;101568.72;2611168;36;20030;-67
2021/11/20 21:28:26;;;;;;;45.70;19.92;;;;;;;8.89;100.00;101556.25;2610309;31;20175;-68
2021/11/20 21:30:54;;;;;;;56.35;23.55;;;;;;;8.85;100.00;101552.06;2611479;31;20137;-69
2021/11/20 21:33:22;;;;;;;52.00;25.23;;;;;;;8.85;100.00;101554.75;2610395;36;20663;-68
2021/11/20 21:35:50;;;;;;;53.67;26.73;;;;;;;8.90;100.00;101553.47;2611989;36;20169;-68
2021/11/20 21:38:19;;;;;;;51.33;22.48;;;;;;;8.89;100.00;101556.25;2609766;31;20186;-71
2021/11/20 21:40:50;;;;;;;50.20;22.30;;;;;;;8.87;100.00;101552.84;2610732;36;20038;-70
2021/11/20 21:43:18;;;;;;;48.10;23.98;;;;;;;8.87;100.00;101542.94;2611547;36;20031;-68
2021/11/20 21:45:46;;;;;;;43.75;21.88;;;;;;;8.83;100.00;101543.28;2611502;36;20159;-68
2021/11/20 21:48:15;;;;;;;50.38;21.88;;;;;;;8.85;100.00;101541.31;2610720;36;20035;-69
2021/11/20 21:50:43;;;;;;;43.75;22.20;;;;;;;8.88;100.00;101544.66;2611596;36;20165;-70
2021/11/20 21:53:11;;;;;;;38.97;17.47;;;;;;;8.86;100.00;101541.25;2611758;36;20157;-69
2021/11/20 21:55:40;;;;;;;45.95;18.98;;;;;;;8.82;100.00;101534.38;2610248;36;20400;-68
2021/11/20 21:58:11;;;;;;;38.30;18.00;;;;;;;8.83;100.00;101535.22;2609629;36;20149;-70
2021/11/20 22:00:39;;;;;;;35.38;17.80;;;;;;;8.89;100.00;101540.16;2611335;36;20514;-70
2021/11/20 22:03:07;;;;;;;35.08;16.65;;;;;;;8.82;100.00;101529.00;2610848;36;20061;-68
2021/11/20 22:05:36;;;;;;;28.23;14.00;;;;;;;8.88;100.00;101517.81;2610227;36;20058;-69
2021/11/20 22:08:04;;;;;;;32.83;16.53;;;;;;;8.88;100.00;101522.34;2610096;36;20582;-69
2021/11/20 22:14:01;;;;;;;32.15;16.15;;;;;;;8.80;100.00;101517.50;2608845;47;20298;-70
2021/11/20 22:19:09;;;;;;;23.65;11.65;;;;;;;8.82;100.00;101517.38;2610351;36;20509;-69
2021/11/20 22:21:38;;;;;;;24.17;11.98;;;;;;;8.77;100.00;101507.84;2611917;36;20157;-69
2021/11/20 22:24:07;;;;;;;21.57;10.80;;;;;;;8.78;100.00;101495.28;2613867;36;20141;-68
2021/11/20 22:29:17;;;;;;;22.50;12.25;;;;;;;8.80;100.00;101487.13;2611558;36;20081;-69
2021/11/20 22:31:45;;;;;;;20.88;11.43;;;;;;;8.80;100.00;101487.13;2611673;36;20100;-68
2021/11/20 22:34:13;;;;;;;25.83;12.38;;;;;;;8.87;100.00;101499.16;2611003;31;20546;-68
2021/11/20 22:36:41;;;;;;;27.58;12.77;;;;;;;8.89;100.00;101491.81;2610849;36;20149;-70
2021/11/20 22:39:09;;;;;;;23.42;12.07;;;;;;;8.89;100.00;101489.13;2610414;36;20122;-70
2021/11/20 22:41:38;;;;;;;22.00;13.10;;;;;;;8.91;100.00;101484.53;2612104;36;20054;-68
2021/11/20 22:44:07;;;;;;;29.23;14.85;;;;;;;8.83;100.00;101478.84;2611724;36;20194;-68
2021/11/20 22:46:38;;;;;;;24.38;12.35;;;;;;;8.80;100.00;101466.50;2611169;36;20582;-69
2021/11/20 22:49:06;;;;;;;26.17;12.20;;;;;;;8.85;100.00;101460.78;2611390;36;20523;-70
2021/11/20 22:51:34;;;;;;;21.48;11.82;;;;;;;8.89;100.00;101470.34;2610764;36;20041;-68
2021/11/20 22:54:03;;;;;;;19.92;11.18;;;;;;;8.81;100.00;101459.31;2610907;36;20194;-68
2021/11/20 22:56:31;;;;;;;23.23;12.60;;;;;;;8.75;100.00;101464.16;2611374;31;20125;-68
2021/11/20 22:58:59;;;;;;;22.00;11.38;;;;;;;8.80;100.00;101465.66;2610513;36;20494;-68
2021/11/20 23:01:35;;;;;;;23.08;12.25;;;;;;;8.79;100.00;101464.81;2605738;36;20049;-68
2021/11/20 23:04:06;;;;;;;23.42;11.45;;;;;;;8.77;100.00;101453.28;2611238;36;20061;-68
2021/11/20 23:06:41;;;;;;;20.05;11.25;;;;;;;8.79;100.00;101463.94;2611509;36;20126;-68
2021/11/20 23:09:18;;;;;;;21.35;12.25;;;;;;;8.77;100.00;101443.44;2611404;31;20072;-70
2021/11/20 23:11:47;;;;;;;20.95;12.77;;;;;;;8.71;100.00;101446.53;2611507;36;20130;-67
2021/11/20 23:14:17;;;;;;;24.88;11.50;;;;;;;8.68;100.00;101432.50;2611909;36;20118;-68
2021/11/20 23:16:49;;;;;;;22.15;12.57;;;;;;;8.66;100.00;101429.91;2610739;36;20195;-67
2021/11/20 23:19:19;;;;;;;29.27;13.27;;;;;;;8.57;100.00;101411.81;2611585;36;20145;-68
2021/11/20 23:21:53;;;;;;;23.35;12.43;;;;;;;8.51;100.00;101414.91;2610997;36;20214;-67
2021/11/20 23:24:43;;;;;;;24.65;11.68;;;;;;;8.53;100.00;101429.09;2610238;36;20030;-66
2021/11/20 23:27:11;;;;;;;23.05;11.35;;;;;;;8.55;100.00;101432.50;2610993;36;20030;-68
2021/11/20 23:29:40;;;;;;;26.30;12.50;;;;;;;8.54;100.00;101425.44;2611279;36;20035;-68
2021/11/20 23:32:09;;;;;;;23.88;12.50;;;;;;;8.55;100.00;101428.00;2609562;36;20035;-70
2021/11/20 23:35:02;;;;;;;23.75;12.07;;;;;;;8.57;100.00;101433.28;2610765;36;20186;-68
2021/11/20 23:37:31;;;;;;;22.52;12.25;;;;;;;8.61;100.00;101421.31;2610538;36;20038;-70
2021/11/20 23:40:07;;;;;;;22.25;11.18;;;;;;;8.63;100.00;101427.47;2610504;36;20034;-68
2021/11/20 23:45:16;;;;;;;21.90;11.88;;;;;;;8.61;100.00;101417.81;2610385;31;20577;-71
2021/11/20 23:47:44;;;;;;;24.03;12.10;;;;;;;8.67;100.00;101412.88;2609658;36;20521;-68
2021/11/20 23:50:57;;;;;;;19.05;11.13;;;;;;;8.65;100.00;101398.69;2610577;36;20398;-67
2021/11/20 23:53:28;;;;;;;22.52;10.63;;;;;;;8.66;100.00;101392.34;2610409;36;20635;-71
2021/11/20 23:55:56;;;;;;;21.15;11.77;;;;;;;8.62;100.00;101388.16;2611588;36;20731;-70
2021/11/20 23:58:25;;;;;;;19.85;10.05;;;;;;;8.68;100.00;101377.00;2611397;31;20174;-71
